Time;durP1;ratioP1;P1;durP2;ratioP2;P2;SDS_P1;SDS_P2;PMS_P1;PMS_P2;Temp;Humidity;BMP_temperature;BMP_pressure;BME280_temperature;BME280_humidity;BME280_pressure;Samples;Min_cycle;Max_cycle;Signal;HPM_P1;HPM_P2
2023/01/03 00:01:12;;;;;;;8.77;4.03;;;;;;;6.36;100.00;101760.63;5979689;29;20118;-76
2023/01/03 00:04:08;;;;;;;8.80;3.80;;;;;;;6.30;100.00;101755.72;5978590;29;20274;-75
2023/01/03 00:07:03;;;;;;;10.63;4.25;;;;;;;6.36;100.00;101768.53;5979405;29;20031;-74
2023/01/03 00:10:05;;;;;;;14.50;4.80;;;;;;;6.28;100.00;101755.81;5978988;29;20114;-76
2023/01/03 00:13:00;;;;;;;9.60;3.95;;;;;;;6.41;100.00;101777.81;5980797;28;20039;-76
2023/01/03 00:15:55;;;;;;;12.10;3.70;;;;;;;6.39;100.00;101786.75;5984262;29;20386;-76
2023/01/03 00:18:51;;;;;;;7.93;3.83;;;;;;;6.39;100.00;101781.50;5984111;29;20043;-74
2023/01/03 00:21:46;;;;;;;13.50;4.50;;;;;;;6.30;100.00;101785.56;5984153;28;20143;-76
2023/01/03 00:24:43;;;;;;;11.70;4.65;;;;;;;6.21;100.00;101782.63;5983793;29;20497;-75
2023/01/03 00:27:38;;;;;;;13.57;4.93;;;;;;;6.30;100.00;101789.97;5971579;29;20038;-75
2023/01/03 00:30:34;;;;;;;10.07;5.00;;;;;;;6.24;100.00;101782.44;5983538;29;20035;-77
2023/01/03 00:33:30;;;;;;;9.65;4.15;;;;;;;6.35;100.00;101794.03;5982881;29;20086;-77
2023/01/03 00:36:25;;;;;;;11.15;3.63;;;;;;;6.28;100.00;101791.81;5983635;29;20039;-75
2023/01/03 00:39:21;;;;;;;12.53;4.30;;;;;;;6.28;100.00;101789.19;5983632;29;20035;-75
2023/01/03 00:42:17;;;;;;;9.45;4.32;;;;;;;6.32;100.00;101788.09;5982631;29;20107;-76
2023/01/03 00:45:12;;;;;;;10.80;3.87;;;;;;;6.32;100.00;101801.25;5983539;29;20032;-76
2023/01/03 00:48:07;;;;;;;10.53;4.97;;;;;;;6.24;100.00;101799.09;5982371;29;20079;-76
2023/01/03 00:51:23;;;;;;;16.63;4.27;;;;;;;6.36;100.00;101810.69;5983270;29;20105;-75
2023/01/03 00:54:19;;;;;;;7.72;3.40;;;;;;;6.27;100.00;101803.31;5965190;29;20064;-76
2023/01/03 00:57:14;;;;;;;9.32;3.85;;;;;;;6.27;100.00;101819.13;5983154;29;20397;-76
2023/01/03 01:00:10;;;;;;;10.67;4.40;;;;;;;6.21;100.00;101824.75;5983276;29;20035;-75
2023/01/03 01:03:05;;;;;;;9.90;3.65;;;;;;;6.07;100.00;101816.81;5982151;29;20034;-74
2023/01/03 01:06:25;;;;;;;9.37;3.47;;;;;;;6.01;100.00;101814.56;5982794;29;20446;-75
2023/01/03 01:09:23;;;;;;;6.80;2.83;;;;;;;6.04;100.00;101830.16;5982331;29;20043;-77
2023/01/03 01:12:19;;;;;;;9.57;3.90;;;;;;;6.09;100.00;101836.03;5982016;29;20485;-77
2023/01/03 01:15:14;;;;;;;5.67;3.20;;;;;;;6.11;100.00;101834.13;5982542;29;20043;-76
2023/01/03 01:18:09;;;;;;;18.00;3.97;;;;;;;6.09;100.00;101846.56;5983180;29;20034;-76
2023/01/03 01:21:06;;;;;;;10.27;3.10;;;;;;;5.99;100.00;101830.44;5982935;28;20039;-75
2023/01/03 01:24:02;;;;;;;11.85;3.40;;;;;;;5.95;100.00;101849.97;5980841;28;20039;-75
2023/01/03 01:26:57;;;;;;;9.37;3.07;;;;;;;5.75;100.00;101845.81;5982409;29;20147;-76
2023/01/03 01:29:52;;;;;;;11.20;3.05;;;;;;;5.84;99.85;101871.59;5982120;29;20287;-75
2023/01/03 01:32:48;;;;;;;8.07;2.90;;;;;;;5.74;99.92;101851.16;5981618;29;20039;-74
2023/01/03 01:35:43;;;;;;;8.93;4.57;;;;;;;5.67;99.79;101860.34;5982212;29;20443;-75
2023/01/03 01:38:38;;;;;;;9.43;3.00;;;;;;;5.74;99.69;101883.59;5981949;29;20035;-75
2023/01/03 01:44:56;;;;;;;7.13;3.05;;;;;;;5.50;100.00;101879.69;5982381;29;20113;-77
2023/01/03 01:47:54;;;;;;;9.00;2.90;;;;;;;5.48;100.00;101897.34;5981610;29;20044;-75
2023/01/03 01:50:52;;;;;;;9.18;3.25;;;;;;;5.43;100.00;101896.75;5964712;29;20127;-76
2023/01/03 01:53:48;;;;;;;8.90;2.80;;;;;;;5.36;100.00;101887.50;5964679;29;20042;-75
2023/01/03 01:56:46;;;;;;;7.97;3.30;;;;;;;5.22;100.00;101879.50;5982234;29;20038;-77
2023/01/03 01:59:42;;;;;;;11.32;2.80;;;;;;;5.24;100.00;101889.03;5982248;29;20061;-75
2023/01/03 02:02:37;;;;;;;6.53;3.10;;;;;;;5.08;100.00;101879.41;5981857;29;20034;-77
2023/01/03 02:05:36;;;;;;;7.47;3.03;;;;;;;5.10;100.00;101893.31;5981811;29;20114;-77
2023/01/03 02:08:31;;;;;;;5.82;2.35;;;;;;;5.10;100.00;101902.06;5964454;29;20566;-75
2023/01/03 02:11:30;;;;;;;6.40;2.80;;;;;;;5.09;100.00;101894.25;5981208;29;20031;-78
2023/01/03 02:14:42;;;;;;;6.30;2.75;;;;;;;4.96;100.00;101898.47;5953597;29;20039;-75
2023/01/03 02:17:58;;;;;;;5.95;2.35;;;;;;;5.01;100.00;101907.81;5981760;29;20031;-76
2023/01/03 02:21:47;;;;;;;8.02;2.92;;;;;;;4.93;100.00;101911.75;5981935;28;20090;-76
2023/01/03 02:25:13;;;;;;;7.68;2.30;;;;;;;4.77;100.00;101915.19;5895899;29;20044;-75
2023/01/03 02:28:27;;;;;;;8.95;3.00;;;;;;;4.76;100.00;101916.13;5963995;29;20066;-76
2023/01/03 02:31:33;;;;;;;9.13;2.45;;;;;;;4.74;100.00;101912.72;5980757;29;20058;-74
2023/01/03 02:34:33;;;;;;;5.90;2.22;;;;;;;4.68;100.00;101917.44;5957845;29;20077;-77
2023/01/03 02:37:53;;;;;;;10.20;2.80;;;;;;;4.55;100.00;101909.34;5963467;29;20078;-75
2023/01/03 02:40:55;;;;;;;5.95;2.50;;;;;;;4.55;100.00;101914.59;5957294;29;20110;-76
2023/01/03 02:44:04;;;;;;;7.72;2.80;;;;;;;4.47;100.00;101911.50;5963366;29;20590;-76
2023/01/03 02:47:06;;;;;;;10.73;2.70;;;;;;;4.44;100.00;101927.41;5964447;29;20495;-76
2023/01/03 02:50:03;;;;;;;8.00;3.03;;;;;;;4.39;100.00;101928.56;5963882;29;20058;-76
2023/01/03 02:53:02;;;;;;;11.75;3.47;;;;;;;4.29;100.00;101917.69;5963488;29;20038;-77
2023/01/03 02:56:03;;;;;;;10.60;3.15;;;;;;;4.31;100.00;101925.47;5964796;29;20072;-74
2023/01/03 02:59:02;;;;;;;8.27;3.33;;;;;;;4.19;100.00;101924.31;5964678;29;20039;-75
2023/01/03 03:01:58;;;;;;;12.65;3.20;;;;;;;4.19;100.00;101922.53;5962700;29;20119;-76
2023/01/03 03:04:55;;;;;;;9.18;3.35;;;;;;;4.24;100.00;101934.59;5963682;29;20390;-75
2023/01/03 03:07:51;;;;;;;5.28;2.67;;;;;;;4.13;100.00;101919.38;5981255;29;20465;-78
2023/01/03 03:14:06;;;;;;;;;;;;;;;4.17;100.00;101934.91;5965908;29;20039;-75
2023/01/03 03:17:14;;;;;;;9.80;3.17;;;;;;;4.08;100.00;101926.59;5980412;29;19910;-75
2023/01/03 03:26:46;;;;;;;6.10;3.15;;;;;;;3.98;100.00;101948.97;5972687;29;20035;-77
2023/01/03 03:29:42;;;;;;;6.78;3.13;;;;;;;3.96;100.00;101951.69;5958886;29;20031;-77
2023/01/03 03:32:38;;;;;;;10.07;3.40;;;;;;;3.93;100.00;101950.97;5980154;29;20114;-75
2023/01/03 03:35:46;;;;;;;7.70;3.40;;;;;;;3.76;100.00;101946.53;5962439;29;20279;-76
2023/01/03 03:38:43;;;;;;;7.43;3.08;;;;;;;3.83;100.00;101960.22;5962450;29;20495;-78
2023/01/03 03:44:59;;;;;;;12.82;3.70;;;;;;;3.81;100.00;101956.78;5965576;29;20043;-78
2023/01/03 03:48:00;;;;;;;7.97;3.08;;;;;;;3.79;100.00;101953.41;5979832;28;20066;-78
2023/01/03 03:51:06;;;;;;;9.40;2.95;;;;;;;3.64;100.00;101954.13;5979709;29;20038;-77
2023/01/03 03:54:06;;;;;;;8.75;2.88;;;;;;;3.59;100.00;101963.03;5979377;29;20038;-75
2023/01/03 03:57:07;;;;;;;8.07;2.80;;;;;;;3.55;100.00;101966.75;5962966;29;20490;-77
2023/01/03 04:00:08;;;;;;;11.75;3.10;;;;;;;3.47;100.00;101952.28;5980097;29;20039;-78
2023/01/03 04:03:05;;;;;;;6.57;3.00;;;;;;;3.46;100.00;101967.16;5961866;29;20331;-76
2023/01/03 04:06:12;;;;;;;5.57;2.60;;;;;;;3.50;100.00;101966.09;5962346;29;20352;-76
2023/01/03 04:09:08;;;;;;;10.30;2.55;;;;;;;3.53;100.00;101959.88;5962916;29;20435;-78
2023/01/03 04:12:03;;;;;;;8.30;3.58;;;;;;;3.60;100.00;101963.91;5962886;29;20042;-77
2023/01/03 04:14:58;;;;;;;7.43;2.70;;;;;;;3.84;100.00;101967.13;5980164;29;20111;-75
2023/01/03 04:17:54;;;;;;;5.70;2.57;;;;;;;3.99;100.00;101977.78;5979722;29;20295;-79
2023/01/03 04:20:49;;;;;;;10.85;3.38;;;;;;;4.00;100.00;101984.72;5979709;28;20619;-79
2023/01/03 04:23:44;;;;;;;8.10;2.80;;;;;;;3.97;100.00;101978.75;5979059;29;20130;-75
2023/01/03 04:26:40;;;;;;;8.30;2.97;;;;;;;4.02;100.00;101982.84;5979372;29;20041;-77
2023/01/03 04:29:35;;;;;;;11.20;2.83;;;;;;;3.93;100.00;101977.22;5978924;29;20035;-79
2023/01/03 04:32:30;;;;;;;6.97;2.73;;;;;;;3.88;100.00;101981.84;5979445;29;20032;-77
2023/01/03 04:35:25;;;;;;;8.97;3.60;;;;;;;3.81;100.00;101980.41;5979488;29;20471;-78
2023/01/03 04:38:21;;;;;;;5.40;2.80;;;;;;;3.79;100.00;101987.50;5979913;29;20041;-75
2023/01/03 04:41:16;;;;;;;5.93;3.00;;;;;;;3.97;100.00;102002.38;5980645;29;20031;-77
2023/01/03 04:44:11;;;;;;;7.20;2.90;;;;;;;3.82;100.00;101969.84;5978711;29;20073;-74
2023/01/03 04:47:07;;;;;;;9.17;3.53;;;;;;;4.00;100.00;102000.47;5979276;29;20043;-74
2023/01/03 04:50:02;;;;;;;8.17;3.50;;;;;;;4.01;100.00;101996.06;5978890;29;20037;-77
2023/01/03 04:52:58;;;;;;;5.70;2.70;;;;;;;3.89;100.00;102000.09;5978442;29;20039;-76
2023/01/03 04:55:55;;;;;;;11.98;3.28;;;;;;;3.78;100.00;101993.69;5978719;29;20043;-76
2023/01/03 04:58:51;;;;;;;7.30;3.03;;;;;;;3.67;100.00;102012.50;5978674;28;20114;-74
2023/01/03 05:01:50;;;;;;;6.43;2.90;;;;;;;3.58;100.00;102007.72;5982809;29;20453;-77
2023/01/03 05:04:46;;;;;;;11.63;3.05;;;;;;;3.49;100.00;101995.84;5982840;29;20039;-77
2023/01/03 05:07:41;;;;;;;8.90;3.33;;;;;;;3.53;100.00;102020.19;5983343;29;20542;-75
2023/01/03 05:10:37;;;;;;;8.95;2.97;;;;;;;3.64;100.00;102007.44;5983326;29;20031;-75
2023/01/03 05:13:33;;;;;;;8.32;3.17;;;;;;;3.63;100.00;101992.59;5983099;29;20031;-75
2023/01/03 05:16:28;;;;;;;6.87;3.37;;;;;;;3.72;100.00;102015.81;5983913;29;20098;-78
2023/01/03 05:19:24;;;;;;;6.35;2.95;;;;;;;3.94;100.00;102034.03;5981212;28;20055;-77
2023/01/03 05:25:51;;;;;;;9.15;4.28;;;;;;;3.88;100.00;102013.31;5982781;29;20434;-78
2023/01/03 05:28:49;;;;;;;10.63;3.70;;;;;;;3.85;100.00;102013.44;5970755;29;20043;-76
2023/01/03 05:31:45;;;;;;;11.05;4.18;;;;;;;3.94;100.00;102028.78;5965419;29;20035;-75
2023/01/03 05:34:40;;;;;;;7.95;4.00;;;;;;;3.79;100.00;102016.34;5982175;29;20045;-76
2023/01/03 05:37:35;;;;;;;9.20;3.67;;;;;;;3.74;100.00;102013.09;5982081;29;20450;-77
2023/01/03 05:40:31;;;;;;;9.33;4.37;;;;;;;3.87;100.00;102016.84;5981774;29;20118;-78
2023/01/03 05:43:26;;;;;;;12.43;4.00;;;;;;;4.05;100.00;102010.75;5981695;29;20038;-75
2023/01/03 05:46:21;;;;;;;8.90;4.30;;;;;;;3.89;100.00;102007.97;5982124;29;20506;-77
2023/01/03 05:49:17;;;;;;;9.23;3.80;;;;;;;3.87;100.00;102011.59;5982814;29;20027;-77
2023/01/03 05:52:12;;;;;;;11.00;4.25;;;;;;;3.87;100.00;102029.97;5981340;29;20078;-74
2023/01/03 05:55:08;;;;;;;10.43;4.13;;;;;;;3.79;100.00;102027.69;5980959;29;20043;-77
2023/01/03 05:58:05;;;;;;;11.85;4.35;;;;;;;3.86;100.00;102036.16;5982306;29;20379;-78
2023/01/03 06:01:07;;;;;;;11.32;4.30;;;;;;;3.99;100.00;102030.28;5981390;29;20459;-75
2023/01/03 06:04:02;;;;;;;9.50;3.53;;;;;;;3.96;100.00;102024.31;5980144;29;20474;-77
2023/01/03 06:06:58;;;;;;;10.60;4.43;;;;;;;4.04;100.00;102032.66;5981534;29;20129;-77
2023/01/03 06:09:53;;;;;;;13.80;6.03;;;;;;;4.13;100.00;102011.25;5981000;28;20317;-77
2023/01/03 06:12:48;;;;;;;12.63;5.57;;;;;;;4.39;100.00;102036.22;5964108;29;20398;-75
2023/01/03 06:17:53;;;;;;;15.97;6.37;;;;;;;4.45;100.00;102023.66;5981781;29;20039;-77
2023/01/03 06:19:00;;;;;;;13.82;6.00;;;;;;;4.58;100.00;102034.41;5981159;29;20042;-79
2023/01/03 06:21:55;;;;;;;14.55;6.45;;;;;;;4.79;100.00;102052.59;5963882;29;20042;-76
2023/01/03 06:24:50;;;;;;;15.15;6.53;;;;;;;4.77;100.00;102046.56;5981681;29;20063;-76
2023/01/03 06:27:46;;;;;;;13.17;5.90;;;;;;;4.90;100.00;102046.78;5981128;29;20031;-76
2023/01/03 06:30:41;;;;;;;11.83;5.90;;;;;;;4.85;100.00;102047.97;5979870;29;20160;-76
2023/01/03 06:33:37;;;;;;;10.43;4.40;;;;;;;5.02;100.00;102053.22;5980687;29;20046;-77
2023/01/03 06:36:34;;;;;;;12.45;5.35;;;;;;;5.01;100.00;102048.88;5980627;29;20035;-76
2023/01/03 06:39:29;;;;;;;14.95;4.85;;;;;;;5.04;100.00;102059.25;5980991;29;20053;-75
2023/01/03 06:42:41;;;;;;;15.50;6.07;;;;;;;5.05;100.00;102071.47;5980025;29;20479;-74
2023/01/03 06:55:19;;;;;;;12.45;6.03;;;;;;;5.00;100.00;102079.56;5965560;29;20110;-75
2023/01/03 06:58:14;;;;;;;12.20;6.15;;;;;;;4.99;100.00;102077.03;5980227;29;20039;-77
2023/01/03 07:01:11;;;;;;;12.80;6.00;;;;;;;4.99;100.00;102084.91;5979859;29;20114;-78
2023/01/03 07:04:06;;;;;;;12.60;5.38;;;;;;;4.93;100.00;102087.84;5962269;29;20043;-79
2023/01/03 07:07:01;;;;;;;14.23;6.20;;;;;;;4.84;100.00;102083.06;5979950;29;20047;-79
2023/01/03 07:09:57;;;;;;;11.43;4.73;;;;;;;4.71;100.00;102083.66;5979675;29;20046;-77
2023/01/03 07:16:06;;;;;;;13.82;5.18;;;;;;;4.94;100.00;102094.81;5980000;29;20486;-76
2023/01/03 07:19:03;;;;;;;13.85;5.40;;;;;;;4.82;100.00;102085.75;5979683;29;20039;-77
2023/01/03 07:21:58;;;;;;;12.75;6.03;;;;;;;4.89;100.00;102102.06;5978831;28;20069;-77
2023/01/03 07:24:53;;;;;;;13.07;6.23;;;;;;;4.86;100.00;102092.56;5979485;29;20501;-77
2023/01/03 07:27:55;;;;;;;16.33;6.43;;;;;;;4.82;100.00;102096.25;5979868;29;20035;-77
2023/01/03 07:30:50;;;;;;;16.85;6.90;;;;;;;4.95;100.00;102117.53;5979461;29;20039;-77
2023/01/03 07:33:46;;;;;;;13.93;6.95;;;;;;;4.94;100.00;102126.34;5978554;29;20035;-76
2023/01/03 07:36:41;;;;;;;13.63;6.13;;;;;;;4.82;100.00;102114.66;5979457;29;20027;-76
2023/01/03 07:39:36;;;;;;;16.20;6.23;;;;;;;4.89;100.00;102133.63;5980078;29;20075;-75
2023/01/03 07:45:45;;;;;;;13.00;6.03;;;;;;;4.75;100.00;102114.13;5979241;29;20535;-78
2023/01/03 07:48:42;;;;;;;14.68;6.65;;;;;;;4.75;100.00;102129.03;5979388;29;20039;-79
2023/01/03 07:51:37;;;;;;;15.23;5.75;;;;;;;4.70;100.00;102147.63;5979230;29;20027;-78
2023/01/03 07:54:33;;;;;;;17.37;6.53;;;;;;;4.56;100.00;102143.97;5978795;28;20090;-76
2023/01/03 07:57:28;;;;;;;15.60;7.03;;;;;;;4.53;100.00;102137.09;5979147;29;20066;-76
2023/01/03 08:00:23;;;;;;;16.52;7.20;;;;;;;4.45;100.00;102141.84;5979600;29;20039;-77
2023/01/03 08:03:19;;;;;;;14.87;6.47;;;;;;;4.41;100.00;102140.28;5978160;29;20108;-77
2023/01/03 08:06:17;;;;;;;16.77;5.90;;;;;;;4.40;100.00;102138.59;5978844;29;20063;-77
2023/01/03 08:16:00;;;;;;;17.33;6.68;;;;;;;4.26;100.00;102148.88;5950719;29;20422;-78
2023/01/03 08:18:55;;;;;;;15.60;5.97;;;;;;;4.30;100.00;102171.41;5948596;29;20040;-77
2023/01/03 08:21:51;;;;;;;15.00;5.73;;;;;;;4.24;100.00;102169.06;5972957;28;20046;-78
2023/01/03 08:24:46;;;;;;;15.52;5.45;;;;;;;4.30;100.00;102144.31;5978129;29;20035;-76
2023/01/03 08:27:41;;;;;;;14.63;6.23;;;;;;;4.36;100.00;102171.16;5978746;29;20035;-79
2023/01/03 08:30:43;;;;;;;17.27;6.77;;;;;;;4.30;100.00;102171.41;5978857;29;20034;-76
2023/01/03 08:33:41;;;;;;;12.38;5.25;;;;;;;4.18;100.00;102148.38;5977926;28;20046;-76
2023/01/03 08:36:40;;;;;;;20.60;6.85;;;;;;;4.23;100.00;102162.13;5983845;29;20043;-77
2023/01/03 08:40:07;;;;;;;13.68;6.13;;;;;;;4.16;100.00;102152.81;5983114;29;20465;-76
2023/01/03 08:43:04;;;;;;;16.33;6.20;;;;;;;4.19;100.00;102158.78;5979249;29;20055;-78
2023/01/03 08:46:01;;;;;;;15.23;6.20;;;;;;;4.18;100.00;102153.63;5983286;29;20513;-79
2023/01/03 08:48:57;;;;;;;13.32;5.90;;;;;;;4.35;100.00;102172.06;5983206;29;20035;-77
2023/01/03 08:51:52;;;;;;;17.97;6.77;;;;;;;4.55;100.00;102172.00;5965287;29;20046;-76
2023/01/03 08:54:47;;;;;;;19.27;6.20;;;;;;;4.55;100.00;102150.13;5983332;29;20426;-77
2023/01/03 08:57:42;;;;;;;18.73;7.00;;;;;;;4.84;100.00;102177.66;5982819;29;20094;-76
2023/01/03 09:00:38;;;;;;;14.00;6.80;;;;;;;5.02;100.00;102171.50;5982753;29;20058;-77
2023/01/03 09:03:33;;;;;;;14.73;6.55;;;;;;;5.28;100.00;102190.34;5982593;29;20038;-77
2023/01/03 09:06:29;;;;;;;18.73;7.40;;;;;;;5.34;100.00;102183.91;5982205;29;20050;-76
2023/01/03 09:09:25;;;;;;;15.20;7.28;;;;;;;5.42;100.00;102192.28;5982120;29;20110;-78
2023/01/03 09:12:20;;;;;;;17.23;7.40;;;;;;;5.56;100.00;102200.34;5981907;29;20039;-77
2023/01/03 09:15:15;;;;;;;20.00;8.00;;;;;;;5.61;100.00;102198.31;5982378;29;20042;-76
2023/01/03 09:18:11;;;;;;;18.83;7.83;;;;;;;5.86;99.74;102209.34;5981091;29;20043;-77
2023/01/03 09:21:07;;;;;;;20.05;7.50;;;;;;;5.94;98.27;102208.94;5981737;28;20631;-75
2023/01/03 09:24:02;;;;;;;16.90;7.85;;;;;;;6.17;96.78;102228.81;5981073;29;20035;-76
2023/01/03 09:26:58;;;;;;;17.80;8.73;;;;;;;6.14;96.20;102219.28;5981909;29;20479;-75
2023/01/03 09:29:53;;;;;;;26.07;8.30;;;;;;;6.25;94.96;102213.44;5964524;29;20107;-76
2023/01/03 09:32:49;;;;;;;20.60;8.27;;;;;;;6.24;94.04;102217.00;5981626;29;20742;-77
2023/01/03 09:35:45;;;;;;;19.77;8.40;;;;;;;6.07;94.44;102206.50;5981480;29;20278;-77
2023/01/03 09:38:40;;;;;;;17.37;8.20;;;;;;;6.00;94.60;102221.78;5981993;29;20384;-76
2023/01/03 09:41:37;;;;;;;22.27;8.17;;;;;;;6.07;94.07;102217.03;5981874;29;20402;-75
2023/01/03 09:44:33;;;;;;;19.98;8.48;;;;;;;6.20;94.52;102218.06;5981109;28;20443;-76
2023/01/03 09:47:33;;;;;;;20.83;8.77;;;;;;;6.49;93.53;102220.03;5964486;29;20063;-76
2023/01/03 09:50:31;;;;;;;19.73;7.78;;;;;;;6.62;92.14;102238.66;5964628;29;20032;-77
2023/01/03 10:03:58;;;;;;;14.52;7.10;;;;;;;6.94;87.10;102224.56;5966305;29;20062;-76
2023/01/03 10:07:08;;;;;;;14.23;6.35;;;;;;;6.86;87.37;102230.25;5981637;29;20394;-76
2023/01/03 10:10:26;;;;;;;15.57;7.20;;;;;;;6.96;86.78;102220.91;5981517;29;20035;-76
2023/01/03 10:13:35;;;;;;;16.75;6.13;;;;;;;7.00;85.83;102205.75;5981413;29;20497;-75
2023/01/03 10:16:40;;;;;;;16.15;6.78;;;;;;;7.15;86.46;102204.88;5981426;29;20483;-76
2023/01/03 10:20:14;;;;;;;15.88;6.38;;;;;;;7.23;85.49;102207.09;5960632;28;20046;-76
2023/01/03 10:23:10;;;;;;;16.85;6.10;;;;;;;7.16;85.61;102196.03;5937575;29;20276;-76
2023/01/03 10:26:12;;;;;;;12.63;6.30;;;;;;;7.23;84.94;102188.63;5980134;29;20039;-77
2023/01/03 10:29:07;;;;;;;16.48;7.15;;;;;;;7.08;85.44;102183.28;5980339;29;20043;-76
2023/01/03 10:32:34;;;;;;;17.40;7.03;;;;;;;7.41;85.21;102195.47;5953351;29;20460;-75
2023/01/03 10:35:30;;;;;;;;;;;;;;;7.62;83.82;102202.97;5980696;29;20042;-76
2023/01/03 10:38:26;;;;;;;14.35;6.90;;;;;;;7.63;83.46;102206.47;5980922;29;19925;-75
2023/01/03 10:41:38;;;;;;;14.50;6.63;;;;;;;7.80;83.28;102188.69;5980724;29;20502;-78
2023/01/03 10:44:33;;;;;;;18.45;7.10;;;;;;;7.67;83.06;102197.41;5962775;29;20110;-75
2023/01/03 10:47:29;;;;;;;16.97;7.67;;;;;;;7.56;84.18;102190.13;5980692;29;20493;-77
2023/01/03 10:50:24;;;;;;;17.53;7.23;;;;;;;7.66;83.44;102198.38;5979619;29;20043;-78
2023/01/03 10:53:21;;;;;;;14.60;7.47;;;;;;;7.54;83.67;102185.91;5979906;29;20043;-76
2023/01/03 10:56:18;;;;;;;15.85;7.05;;;;;;;7.45;84.42;102181.16;5979898;28;20051;-77
2023/01/03 10:59:14;;;;;;;17.52;8.07;;;;;;;7.75;84.27;102189.91;5962149;29;20043;-77
2023/01/03 11:02:11;;;;;;;19.27;8.45;;;;;;;7.72;82.81;102187.44;5979325;29;20074;-77
2023/01/03 11:05:11;;;;;;;16.58;6.75;;;;;;;7.72;83.23;102179.50;5979733;29;20075;-79
2023/01/03 11:08:21;;;;;;;18.23;6.93;;;;;;;7.68;82.95;102183.28;5979676;29;20042;-75
2023/01/03 11:11:28;;;;;;;15.38;6.70;;;;;;;7.57;82.63;102175.16;5979726;29;20039;-77
2023/01/03 11:14:25;;;;;;;16.40;6.53;;;;;;;7.71;82.32;102169.91;5962550;29;20062;-77
2023/01/03 11:17:21;;;;;;;14.70;6.75;;;;;;;7.82;81.90;102185.97;5979343;29;20384;-77
2023/01/03 11:20:18;;;;;;;16.77;6.30;;;;;;;7.81;82.11;102168.41;5979481;28;20035;-77
2023/01/03 11:23:34;;;;;;;18.23;7.07;;;;;;;7.74;81.73;102172.38;5962073;29;20172;-77
2023/01/03 11:26:41;;;;;;;16.23;6.65;;;;;;;7.53;82.15;102173.63;5974355;29;20043;-75
2023/01/03 11:30:01;;;;;;;12.77;5.72;;;;;;;7.42;82.32;102171.63;5957373;29;20028;-76
2023/01/03 11:33:06;;;;;;;;;;;;;;;7.17;82.20;102174.00;5962248;29;20387;-78
2023/01/03 11:36:32;;;;;;;12.80;5.28;;;;;;;6.99;82.31;102156.56;5961340;29;19960;-76
2023/01/03 11:39:59;;;;;;;12.02;5.93;;;;;;;7.07;82.78;102154.34;5979596;29;20639;-78
2023/01/03 11:43:25;;;;;;;10.07;4.65;;;;;;;7.01;82.51;102160.00;5978385;29;20031;-77
2023/01/03 11:46:33;;;;;;;8.45;4.22;;;;;;;6.85;81.15;102133.63;5978540;29;20046;-77
2023/01/03 11:50:01;;;;;;;9.65;3.50;;;;;;;6.96;81.87;102147.06;5977048;29;20116;-74
2023/01/03 11:53:21;;;;;;;10.95;3.83;;;;;;;6.97;81.74;102151.41;5961017;29;20435;-76
2023/01/03 11:56:26;;;;;;;7.32;3.35;;;;;;;6.84;82.15;102131.94;5979400;29;20038;-76
2023/01/03 11:59:28;;;;;;;10.13;3.58;;;;;;;6.90;82.44;102141.31;5961899;29;20035;-76
2023/01/03 12:02:33;;;;;;;7.70;3.60;;;;;;;6.93;82.71;102136.69;5978560;29;20475;-74
2023/01/03 12:05:47;;;;;;;7.07;3.50;;;;;;;6.81;83.13;102134.75;5962105;29;20500;-75
2023/01/03 12:09:19;;;;;;;6.40;3.30;;;;;;;6.90;82.42;102126.31;5977078;28;20039;-77
2023/01/03 12:12:29;;;;;;;11.18;3.60;;;;;;;6.93;82.91;102120.84;5983575;29;20118;-76
2023/01/03 12:15:42;;;;;;;6.93;3.55;;;;;;;6.94;82.34;102122.56;5966372;29;20074;-78
2023/01/03 12:18:42;;;;;;;10.45;3.58;;;;;;;6.95;82.30;102113.72;5984086;29;20043;-76
2023/01/03 12:21:41;;;;;;;7.00;3.15;;;;;;;6.98;82.68;102117.97;5983395;29;20521;-77
2023/01/03 12:24:43;;;;;;;7.22;4.13;;;;;;;7.06;81.39;102111.31;5965571;29;20043;-76
2023/01/03 12:27:47;;;;;;;8.23;3.40;;;;;;;7.07;81.21;102098.97;5983178;29;20042;-76
2023/01/03 12:31:00;;;;;;;6.20;2.92;;;;;;;7.13;81.86;102112.66;5981896;29;20031;-78
2023/01/03 12:34:31;;;;;;;6.53;2.55;;;;;;;7.29;81.54;102111.75;5983055;29;20031;-75
2023/01/03 12:37:29;;;;;;;8.98;3.15;;;;;;;7.30;81.57;102100.25;5966369;29;20061;-74
2023/01/03 12:40:33;;;;;;;4.35;2.45;;;;;;;7.42;81.27;102110.09;5974690;28;20343;-75
2023/01/03 12:43:36;;;;;;;5.93;2.88;;;;;;;7.41;81.15;102105.75;5982665;29;20042;-76
2023/01/03 12:46:35;;;;;;;9.82;2.67;;;;;;;7.41;81.46;102108.38;5966304;29;20497;-75
2023/01/03 12:49:48;;;;;;;5.60;2.42;;;;;;;7.38;81.26;102103.28;5966079;29;20031;-74
2023/01/03 12:52:52;;;;;;;6.72;2.40;;;;;;;7.42;82.00;102097.72;5982688;29;20184;-75
2023/01/03 12:56:22;;;;;;;7.55;2.85;;;;;;;7.45;81.79;102099.34;5965644;29;20427;-75
2023/01/03 12:59:46;;;;;;;10.93;3.10;;;;;;;7.56;80.91;102087.19;5982488;29;20039;-75
2023/01/03 13:02:51;;;;;;;5.88;2.22;;;;;;;7.55;80.70;102095.22;5965373;29;20371;-75
2023/01/03 13:05:49;;;;;;;4.90;2.22;;;;;;;7.47;80.76;102079.00;5982767;29;20118;-75
2023/01/03 13:08:49;;;;;;;6.40;2.13;;;;;;;7.51;80.40;102085.78;5981542;29;20118;-74
2023/01/03 13:11:52;;;;;;;5.50;1.88;;;;;;;7.51;80.55;102075.22;5982166;29;20422;-77
2023/01/03 13:14:53;;;;;;;6.43;2.35;;;;;;;7.73;81.04;102063.25;5982823;29;20039;-76
2023/01/03 13:17:49;;;;;;;4.28;2.20;;;;;;;7.91;79.44;102063.91;5982597;29;20108;-75
2023/01/03 13:20:46;;;;;;;4.63;2.47;;;;;;;7.82;79.65;102061.84;5981403;28;20111;-75
2023/01/03 13:23:41;;;;;;;7.05;2.30;;;;;;;7.96;79.68;102061.84;5981863;29;20326;-74
2023/01/03 13:26:37;;;;;;;6.68;2.35;;;;;;;7.92;79.60;102036.56;5982021;29;20035;-74
2023/01/03 13:29:32;;;;;;;6.77;2.00;;;;;;;8.06;79.39;102056.81;5980695;29;20474;-76
2023/01/03 13:32:29;;;;;;;4.80;1.77;;;;;;;8.02;78.95;102048.22;5981398;29;20306;-75
2023/01/03 13:35:30;;;;;;;5.38;1.90;;;;;;;8.27;78.95;102066.91;5982153;29;20038;-74
2023/01/03 13:38:31;;;;;;;6.53;1.70;;;;;;;8.21;78.37;102059.31;5982061;28;20038;-76
2023/01/03 13:41:34;;;;;;;7.00;2.10;;;;;;;8.18;78.58;102066.63;5982123;29;20087;-76
2023/01/03 13:44:29;;;;;;;4.18;1.52;;;;;;;8.22;79.19;102071.59;5964128;29;20035;-75
2023/01/03 13:47:33;;;;;;;4.80;2.05;;;;;;;8.25;79.26;102057.34;5981787;29;20039;-77
2023/01/03 13:50:33;;;;;;;4.35;1.90;;;;;;;8.18;78.57;102056.88;5964884;29;20031;-75
2023/01/03 13:53:30;;;;;;;4.88;2.33;;;;;;;8.21;79.00;102045.25;5980851;29;20090;-76
2023/01/03 13:56:42;;;;;;;6.97;1.85;;;;;;;8.24;78.07;102061.78;5964828;29;20102;-76
2023/01/03 13:59:43;;;;;;;5.28;1.88;;;;;;;8.21;77.78;102054.03;5980705;29;20035;-77
2023/01/03 14:03:12;;;;;;;6.50;1.98;;;;;;;8.07;78.46;102059.34;5980994;29;20458;-76
2023/01/03 14:06:27;;;;;;;4.72;1.77;;;;;;;8.10;78.61;102068.91;5964768;29;20031;-75
2023/01/03 14:09:40;;;;;;;4.80;1.80;;;;;;;7.89;79.16;102060.50;5963839;29;20502;-76
2023/01/03 14:13:01;;;;;;;5.35;1.95;;;;;;;7.75;80.23;102068.44;5963317;29;20372;-75
2023/01/03 14:16:17;;;;;;;7.28;2.28;;;;;;;7.77;80.76;102061.28;5964365;29;20023;-75
2023/01/03 14:19:19;;;;;;;5.18;2.15;;;;;;;7.70;81.15;102050.25;5981076;29;20375;-75
2023/01/03 14:22:18;;;;;;;5.68;2.35;;;;;;;7.76;81.24;102060.44;5966039;29;20083;-76
2023/01/03 14:25:36;;;;;;;6.03;2.40;;;;;;;7.74;80.99;102048.28;5980693;29;20043;-76
2023/01/03 14:28:32;;;;;;;6.28;3.17;;;;;;;7.65;81.65;102041.78;5981118;29;20485;-76
2023/01/03 14:31:28;;;;;;;6.20;2.88;;;;;;;7.84;82.33;102064.38;5980747;28;20105;-75
2023/01/03 14:34:28;;;;;;;10.23;3.60;;;;;;;7.81;83.33;102068.06;5963028;29;20052;-76
2023/01/03 14:37:25;;;;;;;7.55;2.25;;;;;;;7.77;83.63;102067.41;5980472;29;20042;-76
2023/01/03 14:40:20;;;;;;;7.95;3.50;;;;;;;7.80;83.36;102076.91;5979745;29;20254;-75
2023/01/03 14:43:15;;;;;;;8.63;3.88;;;;;;;7.79;83.66;102077.88;5979953;29;20050;-76
2023/01/03 14:46:11;;;;;;;6.30;3.35;;;;;;;7.74;83.97;102072.03;5980298;29;20043;-76
2023/01/03 14:49:18;;;;;;;6.70;2.37;;;;;;;7.72;83.98;102065.97;5980448;29;20047;-75
2023/01/03 14:52:29;;;;;;;8.80;2.67;;;;;;;7.67;83.89;102060.13;5962303;29;20027;-74